createdAt,value
2018-03-21T00:02:22.443Z,9.87
2018-03-21T00:04:49.992Z,10.27
2018-03-21T00:07:17.596Z,9.90
2018-03-21T00:09:45.157Z,9.97
2018-03-21T00:12:13.092Z,9.30
2018-03-21T00:14:40.637Z,9.50
2018-03-21T00:17:08.143Z,10.47
2018-03-21T00:19:36.088Z,10.17
2018-03-21T00:22:03.604Z,10.53
2018-03-21T00:24:31.150Z,10.30
2018-03-21T00:26:58.676Z,10.93
2018-03-21T00:29:26.261Z,10.00
2018-03-21T00:31:53.787Z,9.90
2018-03-21T00:34:21.336Z,11.17
2018-03-21T00:36:48.982Z,11.17
2018-03-21T00:39:16.489Z,10.03
2018-03-21T00:41:44.424Z,9.87
2018-03-21T00:44:11.947Z,10.37
2018-03-21T00:46:39.502Z,10.43
2018-03-21T00:49:07.032Z,10.03
2018-03-21T00:51:34.974Z,10.40
2018-03-21T00:54:02.495Z,10.70
2018-03-21T00:56:30.102Z,11.57
2018-03-21T00:58:57.659Z,10.20
2018-03-21T01:01:25.630Z,10.63
2018-03-21T01:03:53.752Z,10.70
2018-03-21T01:06:21.310Z,9.93
2018-03-21T01:08:48.824Z,9.67
2018-03-21T01:11:16.776Z,11.47
2018-03-21T01:13:44.312Z,10.50
2018-03-21T01:16:11.867Z,11.10
2018-03-21T01:18:39.387Z,11.00
2018-03-21T01:21:06.987Z,11.50
2018-03-21T01:23:34.529Z,10.80
2018-03-21T01:26:02.071Z,10.97
2018-03-21T01:28:29.612Z,11.97
2018-03-21T01:30:57.559Z,10.93
2018-03-21T01:33:25.075Z,10.57
2018-03-21T01:35:52.731Z,11.07
2018-03-21T01:38:20.271Z,12.27
2018-03-21T01:40:47.815Z,11.90
2018-03-21T01:43:15.739Z,12.80
2018-03-21T01:45:43.254Z,11.50
2018-03-21T01:48:10.823Z,11.20
2018-03-21T01:50:38.357Z,12.67
2018-03-21T01:53:11.165Z,11.73
2018-03-21T01:55:38.795Z,11.67
2018-03-21T01:58:06.729Z,12.13
2018-03-21T02:00:34.261Z,12.03
2018-03-21T02:03:01.828Z,11.23
2018-03-21T02:05:29.351Z,12.67
2018-03-21T02:07:56.892Z,11.57
2018-03-21T02:10:24.915Z,13.57
2018-03-21T02:12:52.486Z,12.90
2018-03-21T02:15:19.998Z,13.17
2018-03-21T02:17:47.559Z,11.13
2018-03-21T02:20:15.075Z,11.63
2018-03-21T02:22:42.764Z,11.20
2018-03-21T02:25:10.689Z,12.63
2018-03-21T02:27:38.247Z,12.73
2018-03-21T02:30:05.769Z,12.87
2018-03-21T02:32:33.320Z,12.70
2018-03-21T02:35:00.836Z,12.20
2018-03-21T02:37:28.371Z,12.07
2018-03-21T02:39:55.893Z,11.97
2018-03-21T02:42:23.428Z,12.90
2018-03-21T02:44:51.344Z,12.17
2018-03-21T02:47:18.882Z,12.97
2018-03-21T02:49:46.411Z,12.90
2018-03-21T02:52:14.332Z,12.23
2018-03-21T02:54:41.871Z,11.80
2018-03-21T02:57:09.388Z,12.30
2018-03-21T02:59:37.332Z,13.07
2018-03-21T03:02:04.855Z,12.57
2018-03-21T03:04:32.417Z,14.77
2018-03-21T03:06:59.948Z,14.43
2018-03-21T03:09:27.969Z,15.97
2018-03-21T03:11:55.471Z,15.00
2018-03-21T03:14:23.422Z,15.17
2018-03-21T03:16:50.934Z,13.40
2018-03-21T03:19:18.870Z,15.80
2018-03-21T03:21:46.419Z,14.50
2018-03-21T03:24:14.363Z,14.37
2018-03-21T03:26:41.888Z,14.30
2018-03-21T03:29:09.548Z,14.93
2018-03-21T03:31:37.068Z,15.40
2018-03-21T03:34:05.003Z,15.77
2018-03-21T03:36:32.535Z,14.83
2018-03-21T03:39:00.063Z,15.63
2018-03-21T03:41:27.980Z,14.43
2018-03-21T03:43:55.526Z,12.97
2018-03-21T03:46:23.044Z,13.73
2018-03-21T03:48:50.613Z,13.90
2018-03-21T03:51:18.198Z,14.07
2018-03-21T03:53:45.813Z,12.80
2018-03-21T03:56:13.727Z,13.60
2018-03-21T03:58:41.303Z,14.40
2018-03-21T04:01:08.820Z,14.17
2018-03-21T04:03:36.370Z,13.73
2018-03-21T04:06:03.905Z,13.63
2018-03-21T04:08:31.824Z,12.90
2018-03-21T04:10:59.363Z,12.23
2018-03-21T04:13:26.874Z,11.97
2018-03-21T04:15:54.487Z,13.10
2018-03-21T04:18:22.012Z,13.33
2018-03-21T04:20:49.609Z,13.47
2018-03-21T04:23:17.185Z,13.27
2018-03-21T04:25:44.817Z,13.87
2018-03-21T04:28:12.335Z,13.30
2018-03-21T04:30:40.282Z,13.47
2018-03-21T04:33:07.811Z,13.23
2018-03-21T04:35:35.407Z,13.27
2018-03-21T04:38:03.326Z,13.00
2018-03-21T04:40:30.867Z,14.40
2018-03-21T04:42:58.377Z,12.13
2018-03-21T04:45:25.915Z,11.93
2018-03-21T04:47:53.431Z,11.43
2018-03-21T04:50:21.360Z,13.17
2018-03-21T04:52:48.901Z,12.90
2018-03-21T04:55:16.420Z,13.10
2018-03-21T04:57:44.181Z,12.50
2018-03-21T05:00:12.094Z,11.80
2018-03-21T05:02:39.693Z,12.20
2018-03-21T05:05:07.623Z,11.70
2018-03-21T05:07:35.183Z,12.30
2018-03-21T05:10:02.702Z,12.50
2018-03-21T05:12:30.256Z,12.90
2018-03-21T05:14:57.781Z,13.20
2018-03-21T05:17:25.319Z,11.37
2018-03-21T05:19:52.847Z,12.87
2018-03-21T05:22:21.672Z,13.07
2018-03-21T05:24:49.184Z,12.83
2018-03-21T05:27:16.728Z,11.73
2018-03-21T05:29:44.638Z,12.23
2018-03-21T05:32:12.180Z,12.37
2018-03-21T05:34:39.694Z,12.63
2018-03-21T05:37:07.732Z,12.13
2018-03-21T05:39:35.247Z,9.87
2018-03-21T05:42:02.931Z,9.93
2018-03-21T05:44:30.466Z,10.17
2018-03-21T05:46:58.055Z,11.17
2018-03-21T05:49:25.600Z,10.00
2018-03-21T05:51:53.140Z,10.17
2018-03-21T05:54:20.686Z,11.10
2018-03-21T05:56:48.607Z,10.10
2018-03-21T05:59:16.171Z,10.83
2018-03-21T06:01:43.693Z,9.07
2018-03-21T06:04:11.235Z,8.50
2018-03-21T06:06:39.143Z,9.20
2018-03-21T06:09:06.728Z,9.17
2018-03-21T06:11:34.241Z,8.90
2018-03-21T06:14:01.778Z,9.07
2018-03-21T06:16:29.678Z,8.63
2018-03-21T06:18:57.226Z,8.83
2018-03-21T06:21:24.747Z,8.87
2018-03-21T06:23:52.701Z,8.67
2018-03-21T06:26:20.214Z,8.20
2018-03-21T06:28:47.753Z,9.00
2018-03-21T06:31:15.350Z,9.20
2018-03-21T06:33:42.870Z,8.60
2018-03-21T06:36:10.448Z,7.17
2018-03-21T06:38:37.961Z,8.43
2018-03-21T06:41:05.895Z,8.03
2018-03-21T06:43:33.417Z,7.53
2018-03-21T06:46:00.943Z,7.50
2018-03-21T06:48:28.866Z,7.60
2018-03-21T06:50:56.421Z,7.27
2018-03-21T06:53:23.987Z,7.83
2018-03-21T06:55:51.531Z,7.40
2018-03-21T06:58:19.048Z,7.30
2018-03-21T07:00:47.015Z,7.00
2018-03-21T07:03:14.926Z,7.57
2018-03-21T07:05:42.453Z,7.40
2018-03-21T07:08:10.356Z,7.07
2018-03-21T07:10:37.887Z,6.73
2018-03-21T07:13:05.411Z,6.70
2018-03-21T07:15:44.719Z,6.70
2018-03-21T07:18:12.232Z,6.10
2018-03-21T07:20:39.743Z,7.60
2018-03-21T07:23:07.276Z,6.03
2018-03-21T07:25:34.808Z,6.53
2018-03-21T07:28:02.345Z,6.03
2018-03-21T07:30:30.259Z,5.43
2018-03-21T07:32:57.792Z,5.77
2018-03-21T07:35:25.691Z,6.63
2018-03-21T07:37:53.215Z,5.27
2018-03-21T07:40:20.732Z,6.20
2018-03-21T07:42:48.267Z,7.30
2018-03-21T07:45:15.773Z,6.03
2018-03-21T07:47:43.694Z,5.10
2018-03-21T07:50:11.195Z,5.10
2018-03-21T07:52:39.121Z,5.10
2018-03-21T07:55:06.643Z,5.60
2018-03-21T07:57:34.159Z,4.87
2018-03-21T08:00:01.705Z,6.47
2018-03-21T08:02:29.224Z,5.27
2018-03-21T08:04:56.790Z,5.83
2018-03-21T08:07:24.303Z,4.73
2018-03-21T08:09:52.230Z,6.30
2018-03-21T08:12:19.748Z,4.97
2018-03-21T08:14:47.303Z,4.63
2018-03-21T08:17:15.300Z,5.10
2018-03-21T08:19:42.829Z,4.50
2018-03-21T08:22:10.823Z,5.17
2018-03-21T08:24:38.360Z,4.63
2018-03-21T08:27:06.258Z,5.17
2018-03-21T08:29:33.794Z,5.10
2018-03-21T08:32:01.438Z,4.73
2018-03-21T08:34:29.447Z,4.70
2018-03-21T08:36:56.934Z,4.33
2018-03-21T08:39:24.437Z,4.77
2018-03-21T08:41:52.007Z,4.83
2018-03-21T08:44:19.538Z,4.87
2018-03-21T08:46:47.455Z,4.93
2018-03-21T08:49:14.974Z,4.17
2018-03-21T08:51:42.513Z,4.27
2018-03-21T08:54:10.420Z,5.30
2018-03-21T08:56:38.032Z,5.30
2018-03-21T08:59:05.536Z,4.53
2018-03-21T09:01:33.070Z,4.63
2018-03-21T09:04:00.971Z,4.97
2018-03-21T09:06:28.504Z,4.60
2018-03-21T09:08:56.014Z,4.90
2018-03-21T09:11:23.534Z,5.50
2018-03-21T09:13:51.028Z,4.00
2018-03-21T09:16:18.558Z,7.57
2018-03-21T09:18:46.107Z,5.17
2018-03-21T09:21:13.647Z,4.70
2018-03-21T09:23:41.166Z,5.30
2018-03-21T09:26:08.807Z,6.73
2018-03-21T09:28:36.354Z,5.07
2018-03-21T09:31:03.870Z,6.80
2018-03-21T09:33:31.784Z,4.90
2018-03-21T09:35:59.308Z,5.00
2018-03-21T09:38:27.247Z,4.57
2018-03-21T09:40:54.767Z,4.83
2018-03-21T09:43:22.295Z,4.50
2018-03-21T09:45:49.811Z,4.70
2018-03-21T09:48:17.343Z,5.63
2018-03-21T09:50:44.861Z,5.73
2018-03-21T09:53:12.392Z,4.93
2018-03-21T09:55:39.895Z,5.50
2018-03-21T09:58:07.433Z,5.40
2018-03-21T10:00:34.944Z,4.80
2018-03-21T10:03:02.496Z,5.13
2018-03-21T10:05:29.995Z,5.23
2018-03-21T10:07:58.099Z,5.43
2018-03-21T10:10:25.607Z,4.97
2018-03-21T10:12:53.144Z,5.03
2018-03-21T10:15:20.660Z,6.23
2018-03-21T10:17:48.195Z,5.37
2018-03-21T10:20:16.091Z,5.27
2018-03-21T10:22:43.634Z,5.43
2018-03-21T10:25:11.159Z,4.83
2018-03-21T10:27:38.674Z,5.10
2018-03-21T10:30:06.204Z,5.13
2018-03-21T10:32:33.726Z,5.43
2018-03-21T10:35:01.374Z,5.00
2018-03-21T10:37:28.879Z,4.67
2018-03-21T10:39:56.819Z,5.10
2018-03-21T10:42:24.336Z,4.97
2018-03-21T10:44:51.902Z,5.77
2018-03-21T10:47:19.398Z,6.43
2018-03-21T10:49:46.938Z,5.47
2018-03-21T10:52:14.443Z,5.20
2018-03-21T10:54:41.971Z,5.90
2018-03-21T10:57:09.487Z,7.20
2018-03-21T10:59:37.411Z,5.60
2018-03-21T11:02:11.131Z,5.70
2018-03-21T11:04:38.668Z,5.13
2018-03-21T11:07:06.588Z,5.37
2018-03-21T11:09:34.539Z,6.43
2018-03-21T11:12:02.097Z,6.00
2018-03-21T11:14:29.652Z,5.60
2018-03-21T11:16:57.151Z,6.20
2018-03-21T11:19:24.670Z,6.23
2018-03-21T11:21:52.199Z,6.80
2018-03-21T11:24:20.102Z,7.20
2018-03-21T11:26:47.624Z,6.47
2018-03-21T11:29:15.526Z,6.60
2018-03-21T11:31:43.087Z,6.27
2018-03-21T11:34:10.640Z,5.40
2018-03-21T11:36:38.155Z,5.67
2018-03-21T11:39:06.085Z,5.40
2018-03-21T11:41:33.628Z,5.43
2018-03-21T11:44:01.216Z,5.07
2018-03-21T11:46:28.748Z,5.43
2018-03-21T11:48:56.252Z,5.73
2018-03-21T11:51:24.180Z,5.00
2018-03-21T11:53:51.694Z,5.40
2018-03-21T11:56:19.228Z,6.00
2018-03-21T11:58:46.727Z,5.40
2018-03-21T12:01:14.247Z,4.97
2018-03-21T12:03:41.865Z,4.97
2018-03-21T12:06:09.412Z,5.23
2018-03-21T12:08:36.943Z,6.10
2018-03-21T12:11:04.852Z,5.23
2018-03-21T12:13:32.383Z,5.13
2018-03-21T12:15:59.901Z,5.80
2018-03-21T12:18:27.432Z,6.40
2018-03-21T12:20:54.935Z,6.17
2018-03-21T12:23:22.952Z,6.20
2018-03-21T12:25:50.457Z,6.90
2018-03-21T12:28:18.427Z,6.67
2018-03-21T12:30:46.331Z,7.30
2018-03-21T12:33:13.852Z,5.97
2018-03-21T12:35:41.759Z,6.87
2018-03-21T12:38:09.318Z,6.23
2018-03-21T12:40:36.864Z,6.80
2018-03-21T12:43:04.747Z,5.57
2018-03-21T12:45:32.273Z,5.80
2018-03-21T12:48:00.179Z,6.67
2018-03-21T12:50:27.695Z,6.70
2018-03-21T12:52:55.600Z,4.87
2018-03-21T12:55:23.124Z,5.97
2018-03-21T12:57:50.619Z,5.70
2018-03-21T13:00:18.166Z,5.57
2018-03-21T13:02:45.669Z,5.33
2018-03-21T13:05:13.193Z,5.37
2018-03-21T13:07:40.722Z,5.37
2018-03-21T13:10:08.267Z,5.40
2018-03-21T13:12:36.184Z,4.57
2018-03-21T13:15:03.713Z,5.23
2018-03-21T13:17:31.223Z,5.40
2018-03-21T13:19:58.754Z,5.63
2018-03-21T13:22:26.269Z,4.63
2018-03-21T13:24:53.802Z,4.60
2018-03-21T13:27:21.300Z,5.10
2018-03-21T13:29:48.832Z,4.87
2018-03-21T13:32:16.724Z,4.23
2018-03-21T13:34:44.280Z,4.73
2018-03-21T13:37:11.795Z,3.53
2018-03-21T13:39:39.303Z,3.37
2018-03-21T13:42:06.847Z,3.43
2018-03-21T13:44:34.355Z,3.03
2018-03-21T13:47:01.889Z,3.60
2018-03-21T13:49:29.407Z,3.80
2018-03-21T13:51:57.348Z,3.70
2018-03-21T13:54:24.969Z,3.87
2018-03-21T13:56:52.491Z,3.60
2018-03-21T13:59:20.397Z,3.47
2018-03-21T14:01:47.923Z,3.17
2018-03-21T14:04:15.823Z,3.20
2018-03-21T14:06:43.348Z,3.33
2018-03-21T14:09:10.879Z,2.77
2018-03-21T14:11:38.481Z,3.20
2018-03-21T14:14:05.997Z,3.00
2018-03-21T14:16:33.532Z,2.73
2018-03-21T14:19:01.052Z,2.80
2018-03-21T14:21:28.571Z,3.70
2018-03-21T14:23:56.388Z,3.40
2018-03-21T14:26:23.900Z,3.83
2018-03-21T14:28:51.831Z,4.23
2018-03-21T14:31:19.342Z,5.13
2018-03-21T14:33:47.268Z,3.53
2018-03-21T14:36:14.808Z,3.50
2018-03-21T14:38:42.349Z,3.40
2018-03-21T14:41:09.881Z,3.33
2018-03-21T14:43:37.424Z,3.90
2018-03-21T14:46:05.331Z,3.00
2018-03-21T14:48:32.851Z,3.50
2018-03-21T14:51:00.755Z,3.43
2018-03-21T14:53:28.285Z,4.03
2018-03-21T14:55:56.191Z,3.63
2018-03-21T14:58:23.708Z,3.87
2018-03-21T15:00:51.625Z,3.63
2018-03-21T15:03:19.141Z,4.00
2018-03-21T15:05:47.076Z,3.30
2018-03-21T15:08:14.592Z,3.67
2018-03-21T15:10:42.127Z,3.93
2018-03-21T15:13:09.638Z,3.50
2018-03-21T15:15:37.172Z,3.47
2018-03-21T15:18:04.671Z,3.40
2018-03-21T15:20:32.200Z,3.60
2018-03-21T15:22:59.796Z,3.37
2018-03-21T15:25:27.719Z,4.37
2018-03-21T15:27:55.217Z,2.97
2018-03-21T15:30:22.739Z,3.87
2018-03-21T15:32:50.236Z,4.27
2018-03-21T15:35:18.164Z,4.30
2018-03-21T15:37:45.680Z,4.37
2018-03-21T15:40:13.275Z,4.27
2018-03-21T15:42:40.817Z,4.23
2018-03-21T15:45:08.389Z,4.37
2018-03-21T15:47:35.880Z,4.53
2018-03-21T15:50:03.414Z,4.10
2018-03-21T15:52:30.951Z,3.27
2018-03-21T15:54:58.476Z,4.00
2018-03-21T15:57:26.491Z,4.40
2018-03-21T15:59:54.017Z,4.00
2018-03-21T16:02:21.559Z,4.33
2018-03-21T16:04:49.462Z,4.40
2018-03-21T16:07:16.990Z,3.93
2018-03-21T16:09:44.891Z,4.47
2018-03-21T16:12:12.415Z,4.57
2018-03-21T16:14:40.319Z,3.97
2018-03-21T16:17:07.872Z,3.90
2018-03-21T16:19:35.374Z,3.60
2018-03-21T16:22:02.893Z,3.83
2018-03-21T16:24:30.415Z,4.47
2018-03-21T16:26:58.347Z,4.03
2018-03-21T16:29:25.876Z,4.23
2018-03-21T16:31:53.415Z,3.77
2018-03-21T16:34:20.920Z,4.60
2018-03-21T16:36:48.560Z,4.43
2018-03-21T16:39:16.083Z,4.37
2018-03-21T16:41:43.764Z,2.93
2018-03-21T16:44:11.296Z,3.40
2018-03-21T16:46:38.816Z,4.37
2018-03-21T16:49:06.355Z,3.80
2018-03-21T16:51:33.869Z,4.10
2018-03-21T16:54:01.795Z,4.40
2018-03-21T16:56:29.296Z,3.60
2018-03-21T16:58:57.288Z,4.50
2018-03-21T17:01:24.846Z,3.73
2018-03-21T17:03:52.412Z,3.10
2018-03-21T17:06:19.928Z,4.13
2018-03-21T17:08:47.891Z,4.30
2018-03-21T17:11:15.812Z,4.20
2018-03-21T17:13:43.366Z,3.87
2018-03-21T17:16:10.873Z,5.00
2018-03-21T17:18:38.773Z,4.63
2018-03-21T17:21:06.311Z,4.53
2018-03-21T17:23:34.308Z,4.40
2018-03-21T17:26:01.841Z,4.33
2018-03-21T17:28:29.940Z,4.47
2018-03-21T17:30:57.471Z,3.87
2018-03-21T17:33:25.372Z,5.10
2018-03-21T17:35:52.917Z,5.47
2018-03-21T17:38:20.444Z,4.50
2018-03-21T17:40:48.367Z,5.07
2018-03-21T17:43:15.887Z,4.17
2018-03-21T17:45:43.412Z,4.37
2018-03-21T17:48:10.927Z,4.57
2018-03-21T17:50:38.452Z,4.37
2018-03-21T17:53:06.346Z,4.40
2018-03-21T17:55:33.880Z,4.60
2018-03-21T17:58:01.412Z,5.37
2018-03-21T18:00:28.975Z,4.53
2018-03-21T18:02:56.879Z,4.90
2018-03-21T18:05:24.389Z,4.70
2018-03-21T18:08:13.283Z,4.77
2018-03-21T18:10:40.803Z,4.87
2018-03-21T18:13:08.421Z,5.17
2018-03-21T18:15:35.942Z,4.70
2018-03-21T18:18:03.946Z,4.70
2018-03-21T18:20:31.466Z,4.63
2018-03-21T18:22:59.379Z,4.43
2018-03-21T18:25:26.893Z,4.80
2018-03-21T18:27:54.819Z,4.30
2018-03-21T18:30:22.428Z,5.27
2018-03-21T18:32:50.363Z,4.97
2018-03-21T18:35:17.875Z,4.83
2018-03-21T18:37:45.415Z,4.83
2018-03-21T18:40:12.940Z,4.87
2018-03-21T18:42:40.637Z,5.23
2018-03-21T18:45:08.557Z,5.60
2018-03-21T18:47:36.118Z,5.50
2018-03-21T18:50:03.646Z,5.33
2018-03-21T18:52:31.184Z,5.10
2018-03-21T18:54:58.704Z,6.43
2018-03-21T18:57:26.254Z,5.37
2018-03-21T18:59:53.881Z,6.20
2018-03-21T19:02:21.488Z,5.47
2018-03-21T19:04:49.026Z,5.33
2018-03-21T19:07:16.540Z,5.80
2018-03-21T19:09:44.088Z,6.07
2018-03-21T19:12:11.991Z,5.67
2018-03-21T19:14:39.643Z,4.90
2018-03-21T19:17:07.168Z,5.87
2018-03-21T19:19:35.106Z,5.50
2018-03-21T19:22:02.657Z,4.50
2018-03-21T19:24:30.199Z,6.93
2018-03-21T19:26:57.790Z,5.67
2018-03-21T19:29:25.326Z,5.57
2018-03-21T19:31:52.875Z,7.27
2018-03-21T19:34:20.436Z,5.73
2018-03-21T19:36:47.953Z,5.37
2018-03-21T19:39:15.899Z,5.80
2018-03-21T19:41:43.816Z,5.30
2018-03-21T19:44:11.400Z,6.03
2018-03-21T19:46:38.903Z,5.80
2018-03-21T19:49:06.524Z,5.60
2018-03-21T19:51:34.067Z,5.87
2018-03-21T19:54:01.728Z,5.47
2018-03-21T19:56:29.255Z,6.03
2018-03-21T19:58:56.770Z,6.40
2018-03-21T20:01:24.307Z,6.10
2018-03-21T20:03:51.823Z,6.10
2018-03-21T20:06:19.362Z,7.60
2018-03-21T20:08:47.277Z,6.80
2018-03-21T20:11:14.821Z,6.57
2018-03-21T20:13:42.376Z,6.77
2018-03-21T20:16:09.923Z,6.60
2018-03-21T20:18:37.436Z,6.50
2018-03-21T20:21:04.987Z,8.23
2018-03-21T20:23:32.567Z,6.20
2018-03-21T20:26:00.509Z,5.97
2018-03-21T20:28:28.015Z,6.77
2018-03-21T20:30:55.544Z,6.70
2018-03-21T20:33:23.062Z,9.30
2018-03-21T20:35:50.726Z,6.43
2018-03-21T20:38:18.370Z,6.43
2018-03-21T20:40:45.891Z,7.57
2018-03-21T20:43:13.821Z,7.03
2018-03-21T20:45:41.349Z,5.93
2018-03-21T20:48:08.878Z,6.60
2018-03-21T20:50:36.416Z,7.17
2018-03-21T20:53:03.955Z,7.37
2018-03-21T20:55:31.467Z,6.03
2018-03-21T20:57:59.400Z,6.40
2018-03-21T21:00:27.322Z,7.83
2018-03-21T21:02:54.881Z,7.37
2018-03-21T21:05:22.407Z,6.60
2018-03-21T21:07:50.340Z,7.33
2018-03-21T21:10:17.869Z,6.10
2018-03-21T21:12:45.395Z,6.13
2018-03-21T21:15:13.292Z,5.87
2018-03-21T21:17:40.837Z,6.37
2018-03-21T21:20:08.390Z,7.30
2018-03-21T21:22:35.951Z,6.13
2018-03-21T21:25:03.464Z,5.93
2018-03-21T21:27:31.006Z,5.70
2018-03-21T21:29:58.517Z,5.90
2018-03-21T21:32:26.071Z,5.37
2018-03-21T21:34:53.662Z,6.07
2018-03-21T21:37:21.202Z,6.03
2018-03-21T21:39:48.812Z,4.83
2018-03-21T21:42:16.330Z,6.47
2018-03-21T21:44:43.860Z,5.63
2018-03-21T21:47:11.371Z,5.73
2018-03-21T21:49:38.906Z,5.80
2018-03-21T21:52:06.420Z,5.87
2018-03-21T21:54:34.375Z,6.63
2018-03-21T21:57:01.910Z,6.47
2018-03-21T21:59:29.444Z,6.17
2018-03-21T22:01:57.000Z,5.63
2018-03-21T22:04:24.531Z,5.30
2018-03-21T22:06:52.435Z,5.77
2018-03-21T22:09:19.978Z,5.53
2018-03-21T22:11:47.493Z,6.43
2018-03-21T22:14:15.048Z,6.83
2018-03-21T22:16:42.666Z,6.10
2018-03-21T22:19:10.187Z,6.00
2018-03-21T22:21:38.123Z,5.30
2018-03-21T22:24:05.644Z,6.47
2018-03-21T22:26:33.590Z,5.00
2018-03-21T22:29:01.503Z,5.07
2018-03-21T22:31:29.057Z,5.07
2018-03-21T22:33:56.583Z,5.87
2018-03-21T22:36:24.130Z,5.43
2018-03-21T22:38:51.668Z,6.07
2018-03-21T22:41:19.195Z,5.70
2018-03-21T22:43:46.703Z,6.00
2018-03-21T22:46:14.652Z,4.90
2018-03-21T22:48:42.565Z,6.20
2018-03-21T22:51:10.076Z,5.27
2018-03-21T22:53:37.599Z,6.13
2018-03-21T22:56:05.123Z,5.27
2018-03-21T22:58:32.662Z,5.60
2018-03-21T23:01:00.575Z,5.83
2018-03-21T23:03:28.521Z,5.93
2018-03-21T23:05:56.055Z,6.17
2018-03-21T23:08:23.978Z,6.00
2018-03-21T23:10:51.536Z,5.97
2018-03-21T23:13:19.476Z,6.53
2018-03-21T23:15:47.020Z,5.93
2018-03-21T23:18:14.569Z,5.70
2018-03-21T23:20:42.478Z,5.07
2018-03-21T23:23:10.023Z,5.60
2018-03-21T23:25:37.648Z,5.67
2018-03-21T23:28:05.561Z,5.47
2018-03-21T23:30:33.111Z,5.67
2018-03-21T23:33:00.647Z,5.83
2018-03-21T23:35:28.173Z,5.20
2018-03-21T23:37:55.702Z,5.33
2018-03-21T23:40:23.253Z,5.00
2018-03-21T23:42:50.822Z,5.33
2018-03-21T23:45:18.360Z,5.00
2018-03-21T23:47:46.042Z,5.37
2018-03-21T23:50:13.612Z,6.20
2018-03-21T23:52:41.127Z,5.10
2018-03-21T23:55:08.649Z,5.93
2018-03-21T23:57:36.207Z,5.50
